sensor_id;sensor_type;location;lat;lon;timestamp;pressure;altitude;pressure_sealevel;temperature;humidity
3206;BME280;1615;53.602;11.418;2022-08-21T00:01:32;101207.19;;;17.30;100.00
3206;BME280;1615;53.602;11.418;2022-08-21T00:03:57;101207.38;;;17.25;100.00
3206;BME280;1615;53.602;11.418;2022-08-21T00:06:23;101212.59;;;17.26;100.00
3206;BME280;1615;53.602;11.418;2022-08-21T00:08:50;101216.00;;;17.40;100.00
3206;BME280;1615;53.602;11.418;2022-08-21T00:11:16;101211.44;;;17.36;100.00
3206;BME280;1615;53.602;11.418;2022-08-21T00:13:42;101157.66;;;17.03;100.00
3206;BME280;1615;53.602;11.418;2022-08-21T00:16:07;101214.53;;;17.43;100.00
3206;BME280;1615;53.602;11.418;2022-08-21T00:18:33;101218.97;;;17.44;100.00
3206;BME280;1615;53.602;11.418;2022-08-21T00:20:58;101208.53;;;17.41;100.00
3206;BME280;1615;53.602;11.418;2022-08-21T00:23:23;101206.72;;;17.45;100.00
3206;BME280;1615;53.602;11.418;2022-08-21T00:25:49;101208.19;;;17.51;100.00
3206;BME280;1615;53.602;11.418;2022-08-21T00:28:14;101206.88;;;17.57;100.00
3206;BME280;1615;53.602;11.418;2022-08-21T00:30:42;101215.34;;;17.52;100.00
3206;BME280;1615;53.602;11.418;2022-08-21T00:33:08;101157.50;;;17.16;100.00
3206;BME280;1615;53.602;11.418;2022-08-21T00:35:36;101207.50;;;17.54;100.00
3206;BME280;1615;53.602;11.418;2022-08-21T00:38:04;101211.94;;;17.55;100.00
3206;BME280;1615;53.602;11.418;2022-08-21T00:40:35;101204.41;;;17.55;100.00
3206;BME280;1615;53.602;11.418;2022-08-21T00:43:03;101215.50;;;17.55;100.00
3206;BME280;1615;53.602;11.418;2022-08-21T00:45:30;101214.22;;;17.44;100.00
3206;BME280;1615;53.602;11.418;2022-08-21T00:47:56;101215.69;;;17.42;100.00
3206;BME280;1615;53.602;11.418;2022-08-21T00:50:22;101161.41;;;16.98;100.00
3206;BME280;1615;53.602;11.418;2022-08-21T00:52:51;101145.59;;;16.82;100.00
3206;BME280;1615;53.602;11.418;2022-08-21T00:55:17;101218.63;;;17.20;100.00
3206;BME280;1615;53.602;11.418;2022-08-21T00:57:47;101146.56;;;16.69;100.00
3206;BME280;1615;53.602;11.418;2022-08-21T01:00:18;101205.25;;;17.05;100.00
3206;BME280;1615;53.602;11.418;2022-08-21T01:02:45;101200.69;;;17.09;100.00
3206;BME280;1615;53.602;11.418;2022-08-21T01:05:12;101197.09;;;17.17;100.00
3206;BME280;1615;53.602;11.418;2022-08-21T01:07:38;101193.50;;;17.25;100.00
3206;BME280;1615;53.602;11.418;2022-08-21T01:10:05;101200.69;;;17.26;100.00
3206;BME280;1615;53.602;11.418;2022-08-21T01:12:32;101185.81;;;17.30;100.00
3206;BME280;1615;53.602;11.418;2022-08-21T01:14:58;101197.25;;;17.37;100.00
3206;BME280;1615;53.602;11.418;2022-08-21T01:17:24;101099.00;;;16.75;100.00
3206;BME280;1615;53.602;11.418;2022-08-21T01:19:50;101185.03;;;17.21;100.00
3206;BME280;1615;53.602;11.418;2022-08-21T01:22:15;101118.22;;;16.80;100.00
3206;BME280;1615;53.602;11.418;2022-08-21T01:24:41;101186.34;;;17.24;100.00
3206;BME280;1615;53.602;11.418;2022-08-21T01:27:06;101193.84;;;17.15;100.00
3206;BME280;1615;53.602;11.418;2022-08-21T01:29:37;101199.22;;;17.11;100.00
3206;BME280;1615;53.602;11.418;2022-08-21T01:32:09;101186.50;;;17.02;100.00
3206;BME280;1615;53.602;11.418;2022-08-21T01:34:37;101088.94;;;16.45;100.00
3206;BME280;1615;53.602;11.418;2022-08-21T01:37:03;101141.84;;;16.86;100.00
3206;BME280;1615;53.602;11.418;2022-08-21T01:39:29;101190.59;;;17.13;100.00
3206;BME280;1615;53.602;11.418;2022-08-21T01:41:55;101192.06;;;17.10;100.00
3206;BME280;1615;53.602;11.418;2022-08-21T01:44:21;101188.63;;;17.05;100.00
3206;BME280;1615;53.602;11.418;2022-08-21T01:46:47;101191.22;;;17.10;100.00
3206;BME280;1615;53.602;11.418;2022-08-21T01:49:13;101194.81;;;17.02;100.00
3206;BME280;1615;53.602;11.418;2022-08-21T01:51:39;101200.69;;;17.09;100.00
3206;BME280;1615;53.602;11.418;2022-08-21T01:54:04;101201.69;;;16.96;100.00
3206;BME280;1615;53.602;11.418;2022-08-21T01:56:36;101212.06;;;16.82;100.00
3206;BME280;1615;53.602;11.418;2022-08-21T01:59:01;101194.28;;;16.57;100.00
3206;BME280;1615;53.602;11.418;2022-08-21T02:01:27;101051.31;;;15.71;100.00
3206;BME280;1615;53.602;11.418;2022-08-21T02:03:52;101233.53;;;16.68;100.00
3206;BME280;1615;53.602;11.418;2022-08-21T02:06:17;101221.97;;;16.66;100.00
3206;BME280;1615;53.602;11.418;2022-08-21T02:08:43;101204.50;;;16.40;100.00
3206;BME280;1615;53.602;11.418;2022-08-21T02:11:09;101245.06;;;16.53;100.00
3206;BME280;1615;53.602;11.418;2022-08-21T02:13:34;101128.19;;;16.00;100.00
3206;BME280;1615;53.602;11.418;2022-08-21T02:16:00;101230.44;;;16.61;100.00
3206;BME280;1615;53.602;11.418;2022-08-21T02:18:25;101233.34;;;16.56;100.00
3206;BME280;1615;53.602;11.418;2022-08-21T02:20:50;101138.69;;;15.89;100.00
3206;BME280;1615;53.602;11.418;2022-08-21T02:23:16;101227.34;;;16.54;100.00
3206;BME280;1615;53.602;11.418;2022-08-21T02:25:41;101221.13;;;16.57;100.00
3206;BME280;1615;53.602;11.418;2022-08-21T02:28:10;101221.44;;;16.47;100.00
3206;BME280;1615;53.602;11.418;2022-08-21T02:30:40;101211.03;;;16.44;100.00
3206;BME280;1615;53.602;11.418;2022-08-21T02:33:08;101205.69;;;16.64;100.00
3206;BME280;1615;53.602;11.418;2022-08-21T02:35:34;101209.59;;;16.63;100.00
3206;BME280;1615;53.602;11.418;2022-08-21T02:38:03;101209.94;;;16.70;100.00
3206;BME280;1615;53.602;11.418;2022-08-21T02:40:32;101209.47;;;16.77;100.00
3206;BME280;1615;53.602;11.418;2022-08-21T02:42:58;101207.84;;;16.76;100.00
3206;BME280;1615;53.602;11.418;2022-08-21T02:45:24;101211.75;;;16.75;100.00
3206;BME280;1615;53.602;11.418;2022-08-21T02:48:13;101198.38;;;16.77;100.00
3206;BME280;1615;53.602;11.418;2022-08-21T02:50:45;101090.09;;;15.97;100.00
3206;BME280;1615;53.602;11.418;2022-08-21T02:53:13;101201.28;;;16.63;100.00
3206;BME280;1615;53.602;11.418;2022-08-21T02:55:40;101191.50;;;16.49;100.00
3206;BME280;1615;53.602;11.418;2022-08-21T02:58:07;101192.28;;;16.41;100.00
3206;BME280;1615;53.602;11.418;2022-08-21T03:00:33;101194.91;;;16.46;100.00
3206;BME280;1615;53.602;11.418;2022-08-21T03:02:59;101189.88;;;16.48;100.00
3206;BME280;1615;53.602;11.418;2022-08-21T03:05:27;101198.31;;;16.43;100.00
3206;BME280;1615;53.602;11.418;2022-08-21T03:07:53;101083.06;;;15.82;100.00
3206;BME280;1615;53.602;11.418;2022-08-21T03:10:20;101198.66;;;16.50;100.00
3206;BME280;1615;53.602;11.418;2022-08-21T03:12:47;101197.81;;;16.41;100.00
3206;BME280;1615;53.602;11.418;2022-08-21T03:15:15;101196.63;;;16.33;100.00
3206;BME280;1615;53.602;11.418;2022-08-21T03:17:41;101198.88;;;16.23;100.00
3206;BME280;1615;53.602;11.418;2022-08-21T03:20:07;101201.63;;;16.14;100.00
3206;BME280;1615;53.602;11.418;2022-08-21T03:22:33;101206.41;;;16.00;100.00
3206;BME280;1615;53.602;11.418;2022-08-21T03:24:59;101201.34;;;15.94;100.00
3206;BME280;1615;53.602;11.418;2022-08-21T03:27:26;101199.88;;;15.96;100.00
3206;BME280;1615;53.602;11.418;2022-08-21T03:29:52;101201.78;;;15.79;100.00
3206;BME280;1615;53.602;11.418;2022-08-21T03:32:18;101201.09;;;15.73;100.00
3206;BME280;1615;53.602;11.418;2022-08-21T03:34:45;101206.75;;;15.68;100.00
3206;BME280;1615;53.602;11.418;2022-08-21T03:37:10;101203.66;;;15.70;100.00
3206;BME280;1615;53.602;11.418;2022-08-21T03:39:37;101199.28;;;15.69;100.00
3206;BME280;1615;53.602;11.418;2022-08-21T03:42:02;101185.41;;;15.60;100.00
3206;BME280;1615;53.602;11.418;2022-08-21T03:44:28;101184.81;;;15.72;100.00
3206;BME280;1615;53.602;11.418;2022-08-21T03:46:54;101199.19;;;15.82;100.00
3206;BME280;1615;53.602;11.418;2022-08-21T03:49:19;101199.53;;;15.89;100.00
3206;BME280;1615;53.602;11.418;2022-08-21T03:51:45;101194.56;;;16.00;100.00
3206;BME280;1615;53.602;11.418;2022-08-21T03:54:10;101200.09;;;16.00;100.00
3206;BME280;1615;53.602;11.418;2022-08-21T03:56:35;101149.13;;;15.62;100.00
3206;BME280;1615;53.602;11.418;2022-08-21T03:59:01;101124.88;;;15.50;100.00
3206;BME280;1615;53.602;11.418;2022-08-21T04:01:28;101121.94;;;15.47;100.00
3206;BME280;1615;53.602;11.418;2022-08-21T04:03:54;101086.50;;;15.27;100.00
3206;BME280;1615;53.602;11.418;2022-08-21T04:06:19;101205.75;;;15.95;100.00
3206;BME280;1615;53.602;11.418;2022-08-21T04:08:44;101153.91;;;15.70;100.00
3206;BME280;1615;53.602;11.418;2022-08-21T04:11:09;101099.56;;;15.35;100.00
3206;BME280;1615;53.602;11.418;2022-08-21T04:13:38;101200.53;;;15.93;100.00
3206;BME280;1615;53.602;11.418;2022-08-21T04:16:04;101146.16;;;15.50;100.00
3206;BME280;1615;53.602;11.418;2022-08-21T04:18:29;101196.94;;;15.93;100.00
3206;BME280;1615;53.602;11.418;2022-08-21T04:20:56;101208.59;;;16.12;100.00
3206;BME280;1615;53.602;11.418;2022-08-21T04:23:23;101215.38;;;15.97;100.00
3206;BME280;1615;53.602;11.418;2022-08-21T04:25:48;101210.19;;;16.04;100.00
3206;BME280;1615;53.602;11.418;2022-08-21T04:28:14;101218.75;;;15.94;100.00
3206;BME280;1615;53.602;11.418;2022-08-21T04:30:39;101214.84;;;15.95;100.00
3206;BME280;1615;53.602;11.418;2022-08-21T04:33:05;101093.97;;;15.26;100.00
3206;BME280;1615;53.602;11.418;2022-08-21T04:35:30;101208.88;;;16.02;100.00
3206;BME280;1615;53.602;11.418;2022-08-21T04:37:57;101196.41;;;15.82;100.00
3206;BME280;1615;53.602;11.418;2022-08-21T04:40:24;101153.44;;;15.46;100.00
3206;BME280;1615;53.602;11.418;2022-08-21T04:42:56;101213.31;;;15.81;100.00
3206;BME280;1615;53.602;11.418;2022-08-21T04:45:42;101076.34;;;15.14;100.00
3206;BME280;1615;53.602;11.418;2022-08-21T04:48:10;101211.50;;;16.07;100.00
3206;BME280;1615;53.602;11.418;2022-08-21T04:53:06;101224.72;;;16.18;100.00
3206;BME280;1615;53.602;11.418;2022-08-21T04:55:33;101229.63;;;16.21;100.00
3206;BME280;1615;53.602;11.418;2022-08-21T04:58:00;101075.94;;;15.29;100.00
3206;BME280;1615;53.602;11.418;2022-08-21T05:00:25;101137.47;;;15.65;100.00
3206;BME280;1615;53.602;11.418;2022-08-21T05:02:52;101183.78;;;15.90;100.00
3206;BME280;1615;53.602;11.418;2022-08-21T05:05:21;101184.22;;;15.83;100.00
3206;BME280;1615;53.602;11.418;2022-08-21T05:07:47;101225.88;;;16.26;100.00
3206;BME280;1615;53.602;11.418;2022-08-21T05:10:13;101213.06;;;16.30;100.00
3206;BME280;1615;53.602;11.418;2022-08-21T05:12:40;101233.25;;;16.30;100.00
3206;BME280;1615;53.602;11.418;2022-08-21T05:15:07;101176.44;;;15.94;100.00
3206;BME280;1615;53.602;11.418;2022-08-21T05:17:32;101231.97;;;16.36;100.00
3206;BME280;1615;53.602;11.418;2022-08-21T05:19:58;101235.63;;;16.45;100.00
3206;BME280;1615;53.602;11.418;2022-08-21T05:22:24;101233.66;;;16.54;100.00
3206;BME280;1615;53.602;11.418;2022-08-21T05:24:49;101235.81;;;16.66;100.00
3206;BME280;1615;53.602;11.418;2022-08-21T05:27:14;101225.09;;;16.73;100.00
3206;BME280;1615;53.602;11.418;2022-08-21T05:29:40;101197.06;;;16.66;100.00
3206;BME280;1615;53.602;11.418;2022-08-21T05:32:10;101223.50;;;17.06;100.00
3206;BME280;1615;53.602;11.418;2022-08-21T05:34:36;101226.59;;;17.21;100.00
3206;BME280;1615;53.602;11.418;2022-08-21T05:37:01;101230.00;;;17.27;100.00
3206;BME280;1615;53.602;11.418;2022-08-21T05:39:26;101179.97;;;17.15;100.00
3206;BME280;1615;53.602;11.418;2022-08-21T05:41:52;101234.28;;;17.50;100.00
3206;BME280;1615;53.602;11.418;2022-08-21T05:44:17;101230.97;;;17.65;100.00
3206;BME280;1615;53.602;11.418;2022-08-21T05:46:42;101228.66;;;17.84;100.00
3206;BME280;1615;53.602;11.418;2022-08-21T05:49:08;101213.97;;;17.92;100.00
3206;BME280;1615;53.602;11.418;2022-08-21T05:51:33;101223.38;;;18.08;100.00
3206;BME280;1615;53.602;11.418;2022-08-21T05:53:58;101230.19;;;18.10;100.00
3206;BME280;1615;53.602;11.418;2022-08-21T05:56:23;101223.97;;;18.22;100.00
3206;BME280;1615;53.602;11.418;2022-08-21T05:58:49;101223.00;;;18.18;100.00
3206;BME280;1615;53.602;11.418;2022-08-21T06:01:14;101221.63;;;18.41;100.00
3206;BME280;1615;53.602;11.418;2022-08-21T06:03:40;101202.19;;;18.41;100.00
3206;BME280;1615;53.602;11.418;2022-08-21T06:06:06;101223.63;;;18.61;100.00
3206;BME280;1615;53.602;11.418;2022-08-21T06:08:31;101223.53;;;18.78;100.00
3206;BME280;1615;53.602;11.418;2022-08-21T06:10:59;101241.09;;;18.90;100.00
3206;BME280;1615;53.602;11.418;2022-08-21T06:13:25;101159.75;;;18.61;100.00
3206;BME280;1615;53.602;11.418;2022-08-21T06:16:04;101223.28;;;18.91;100.00
3206;BME280;1615;53.602;11.418;2022-08-21T06:18:31;101224.91;;;18.92;100.00
3206;BME280;1615;53.602;11.418;2022-08-21T06:20:57;101219.28;;;19.01;100.00
3206;BME280;1615;53.602;11.418;2022-08-21T06:23:22;101224.59;;;18.94;100.00
3206;BME280;1615;53.602;11.418;2022-08-21T06:25:47;101147.41;;;18.50;100.00
3206;BME280;1615;53.602;11.418;2022-08-21T06:28:13;101218.06;;;19.10;100.00
3206;BME280;1615;53.602;11.418;2022-08-21T06:30:39;101216.38;;;19.18;100.00
3206;BME280;1615;53.602;11.418;2022-08-21T06:33:05;101216.19;;;19.23;100.00
3206;BME280;1615;53.602;11.418;2022-08-21T06:35:32;101220.22;;;19.46;100.00
3206;BME280;1615;53.602;11.418;2022-08-21T06:37:57;101093.44;;;18.80;100.00
3206;BME280;1615;53.602;11.418;2022-08-21T06:40:23;101221.94;;;19.71;100.00
3206;BME280;1615;53.602;11.418;2022-08-21T06:42:49;101221.53;;;19.81;100.00
3206;BME280;1615;53.602;11.418;2022-08-21T06:45:15;101221.31;;;19.86;100.00
3206;BME280;1615;53.602;11.418;2022-08-21T06:47:40;101077.03;;;19.19;100.00
3206;BME280;1615;53.602;11.418;2022-08-21T06:50:06;101214.91;;;20.18;100.00
3206;BME280;1615;53.602;11.418;2022-08-21T06:52:36;101227.13;;;20.05;100.00
3206;BME280;1615;53.602;11.418;2022-08-21T06:55:01;101226.00;;;20.06;100.00
3206;BME280;1615;53.602;11.418;2022-08-21T06:57:27;101220.69;;;20.25;100.00
3206;BME280;1615;53.602;11.418;2022-08-21T06:59:52;101223.63;;;20.40;100.00
3206;BME280;1615;53.602;11.418;2022-08-21T07:02:17;101207.38;;;20.30;100.00
3206;BME280;1615;53.602;11.418;2022-08-21T07:04:43;101204.00;;;20.49;100.00
3206;BME280;1615;53.602;11.418;2022-08-21T07:07:08;101147.63;;;20.16;100.00
3206;BME280;1615;53.602;11.418;2022-08-21T07:09:34;101208.66;;;20.45;100.00
3206;BME280;1615;53.602;11.418;2022-08-21T07:12:00;101204.00;;;20.61;100.00
3206;BME280;1615;53.602;11.418;2022-08-21T07:14:25;101210.69;;;20.84;100.00
3206;BME280;1615;53.602;11.418;2022-08-21T07:16:51;101198.97;;;20.90;100.00
3206;BME280;1615;53.602;11.418;2022-08-21T07:19:17;101210.94;;;21.03;100.00
3206;BME280;1615;53.602;11.418;2022-08-21T07:21:42;101199.47;;;21.20;100.00
3206;BME280;1615;53.602;11.418;2022-08-21T07:24:08;101200.66;;;21.19;100.00
3206;BME280;1615;53.602;11.418;2022-08-21T07:26:34;101187.72;;;21.26;100.00
3206;BME280;1615;53.602;11.418;2022-08-21T07:28:59;101196.19;;;21.30;100.00
3206;BME280;1615;53.602;11.418;2022-08-21T07:31:25;101139.56;;;21.14;100.00
3206;BME280;1615;53.602;11.418;2022-08-21T07:33:51;101161.47;;;21.27;100.00
3206;BME280;1615;53.602;11.418;2022-08-21T07:36:17;101179.25;;;21.78;100.00
3206;BME280;1615;53.602;11.418;2022-08-21T07:38:42;101183.66;;;21.79;100.00
3206;BME280;1615;53.602;11.418;2022-08-21T07:41:28;101180.88;;;21.79;100.00
3206;BME280;1615;53.602;11.418;2022-08-21T07:43:56;101072.03;;;21.51;100.00
3206;BME280;1615;53.602;11.418;2022-08-21T07:46:22;101176.81;;;22.23;100.00
3206;BME280;1615;53.602;11.418;2022-08-21T07:48:48;101174.03;;;22.23;100.00
3206;BME280;1615;53.602;11.418;2022-08-21T07:51:15;101170.72;;;22.17;100.00
3206;BME280;1615;53.602;11.418;2022-08-21T07:53:42;101149.53;;;22.01;100.00
3206;BME280;1615;53.602;11.418;2022-08-21T07:56:12;101176.75;;;22.35;100.00
3206;BME280;1615;53.602;11.418;2022-08-21T07:58:37;101191.34;;;22.44;100.00
3206;BME280;1615;53.602;11.418;2022-08-21T08:01:02;101165.47;;;22.47;100.00
3206;BME280;1615;53.602;11.418;2022-08-21T08:03:28;101174.50;;;22.56;100.00
3206;BME280;1615;53.602;11.418;2022-08-21T08:05:53;101180.38;;;22.70;100.00
3206;BME280;1615;53.602;11.418;2022-08-21T08:08:19;101150.47;;;22.70;100.00
3206;BME280;1615;53.602;11.418;2022-08-21T08:10:45;101169.34;;;22.92;100.00
3206;BME280;1615;53.602;11.418;2022-08-21T08:13:10;101177.50;;;23.01;100.00
3206;BME280;1615;53.602;11.418;2022-08-21T08:15:36;101194.34;;;23.04;100.00
3206;BME280;1615;53.602;11.418;2022-08-21T08:18:02;101177.00;;;23.14;100.00
3206;BME280;1615;53.602;11.418;2022-08-21T08:20:27;101075.91;;;22.59;100.00
3206;BME280;1615;53.602;11.418;2022-08-21T08:22:54;101180.00;;;23.06;100.00
3206;BME280;1615;53.602;11.418;2022-08-21T08:25:21;101162.19;;;22.95;100.00
3206;BME280;1615;53.602;11.418;2022-08-21T08:27:48;101171.19;;;23.04;100.00
3206;BME280;1615;53.602;11.418;2022-08-21T08:30:15;101176.94;;;23.11;100.00
3206;BME280;1615;53.602;11.418;2022-08-21T08:32:41;101195.03;;;23.17;100.00
3206;BME280;1615;53.602;11.418;2022-08-21T08:35:08;101167.41;;;23.31;100.00
3206;BME280;1615;53.602;11.418;2022-08-21T08:37:35;101167.09;;;23.36;100.00
3206;BME280;1615;53.602;11.418;2022-08-21T08:40:03;101178.19;;;23.32;100.00
3206;BME280;1615;53.602;11.418;2022-08-21T08:42:32;101159.84;;;23.35;100.00
3206;BME280;1615;53.602;11.418;2022-08-21T08:45:08;101165.75;;;23.49;100.00
3206;BME280;1615;53.602;11.418;2022-08-21T08:47:37;101088.50;;;23.25;100.00
3206;BME280;1615;53.602;11.418;2022-08-21T08:50:14;101159.97;;;23.61;100.00
3206;BME280;1615;53.602;11.418;2022-08-21T08:52:54;101111.91;;;23.55;100.00
3206;BME280;1615;53.602;11.418;2022-08-21T08:55:32;101096.13;;;23.47;100.00
3206;BME280;1615;53.602;11.418;2022-08-21T08:57:58;101154.91;;;23.89;100.00
3206;BME280;1615;53.602;11.418;2022-08-21T09:00:24;101134.38;;;23.81;100.00
3206;BME280;1615;53.602;11.418;2022-08-21T09:02:52;101071.38;;;23.27;100.00
3206;BME280;1615;53.602;11.418;2022-08-21T09:05:24;101111.50;;;23.57;100.00
3206;BME280;1615;53.602;11.418;2022-08-21T09:08:04;101148.16;;;23.71;100.00
3206;BME280;1615;53.602;11.418;2022-08-21T09:11:03;101141.75;;;23.70;100.00
3206;BME280;1615;53.602;11.418;2022-08-21T09:16:27;101141.38;;;23.91;100.00
3206;BME280;1615;53.602;11.418;2022-08-21T09:19:31;101141.72;;;23.89;100.00
3206;BME280;1615;53.602;11.418;2022-08-21T09:22:06;101140.22;;;23.95;100.00
3206;BME280;1615;53.602;11.418;2022-08-21T09:27:13;101132.75;;;24.03;100.00
3206;BME280;1615;53.602;11.418;2022-08-21T09:29:42;101134.34;;;24.26;100.00
3206;BME280;1615;53.602;11.418;2022-08-21T09:32:22;101144.84;;;24.29;100.00
3206;BME280;1615;53.602;11.418;2022-08-21T09:35:13;101082.97;;;23.93;100.00
3206;BME280;1615;53.602;11.418;2022-08-21T09:43:04;101148.94;;;24.35;100.00
3206;BME280;1615;53.602;11.418;2022-08-21T09:45:31;101150.22;;;24.41;100.00
3206;BME280;1615;53.602;11.418;2022-08-21T09:48:11;101080.94;;;23.90;100.00
3206;BME280;1615;53.602;11.418;2022-08-21T09:50:38;101022.97;;;23.49;100.00
3206;BME280;1615;53.602;11.418;2022-08-21T09:53:04;101142.44;;;24.31;100.00
3206;BME280;1615;53.602;11.418;2022-08-21T09:55:33;101141.53;;;24.50;100.00
3206;BME280;1615;53.602;11.418;2022-08-21T09:58:19;101136.50;;;24.59;100.00
3206;BME280;1615;53.602;11.418;2022-08-21T10:00:45;101111.88;;;24.49;100.00
3206;BME280;1615;53.602;11.418;2022-08-21T10:03:21;101141.56;;;24.76;100.00
3206;BME280;1615;53.602;11.418;2022-08-21T10:05:59;101139.16;;;24.78;99.17
3206;BME280;1615;53.602;11.418;2022-08-21T10:08:26;101080.84;;;24.35;98.42
3206;BME280;1615;53.602;11.418;2022-08-21T10:11:05;101136.69;;;24.73;95.02
3206;BME280;1615;53.602;11.418;2022-08-21T10:13:36;101131.19;;;24.80;95.26
3206;BME280;1615;53.602;11.418;2022-08-21T10:24:35;101009.19;;;24.67;100.00
3206;BME280;1615;53.602;11.418;2022-08-21T10:27:21;101121.09;;;25.38;99.37
3206;BME280;1615;53.602;11.418;2022-08-21T10:29:54;101121.94;;;25.38;95.80
3206;BME280;1615;53.602;11.418;2022-08-21T10:32:45;101126.09;;;25.22;95.47
3206;BME280;1615;53.602;11.418;2022-08-21T10:35:28;101117.66;;;25.18;98.75
3206;BME280;1615;53.602;11.418;2022-08-21T10:49:54;101117.22;;;25.16;96.85
3206;BME280;1615;53.602;11.418;2022-08-21T10:55:00;101125.56;;;25.39;100.00
3206;BME280;1615;53.602;11.418;2022-08-21T11:00:01;101118.56;;;25.62;100.00
3206;BME280;1615;53.602;11.418;2022-08-21T11:02:49;101114.63;;;25.70;95.88
3206;BME280;1615;53.602;11.418;2022-08-21T11:05:27;101111.50;;;25.79;93.70
3206;BME280;1615;53.602;11.418;2022-08-21T11:07:55;101111.88;;;25.77;89.91
3206;BME280;1615;53.602;11.418;2022-08-21T11:10:26;101092.66;;;25.79;88.54
3206;BME280;1615;53.602;11.418;2022-08-21T11:13:11;101105.69;;;25.98;93.72
3206;BME280;1615;53.602;11.418;2022-08-21T11:16:00;101104.53;;;26.02;92.03
3206;BME280;1615;53.602;11.418;2022-08-21T11:18:37;101102.19;;;26.08;91.68
3206;BME280;1615;53.602;11.418;2022-08-21T11:26:52;101099.72;;;26.03;88.56
3206;BME280;1615;53.602;11.418;2022-08-21T11:29:24;101102.25;;;26.22;91.67
3206;BME280;1615;53.602;11.418;2022-08-21T11:34:43;101098.34;;;26.33;87.83
3206;BME280;1615;53.602;11.418;2022-08-21T11:37:22;101092.59;;;26.19;85.07
3206;BME280;1615;53.602;11.418;2022-08-21T11:45:56;101045.56;;;26.13;91.98
3206;BME280;1615;53.602;11.418;2022-08-21T11:49:00;101091.06;;;26.29;90.92
3206;BME280;1615;53.602;11.418;2022-08-21T11:51:34;101089.53;;;26.35;86.90
3206;BME280;1615;53.602;11.418;2022-08-21T11:56:33;101043.59;;;26.17;85.21
3206;BME280;1615;53.602;11.418;2022-08-21T11:59:05;101089.19;;;26.47;87.33
3206;BME280;1615;53.602;11.418;2022-08-21T12:01:36;101042.09;;;26.30;85.13
3206;BME280;1615;53.602;11.418;2022-08-21T12:04:26;101067.59;;;26.65;86.39
3206;BME280;1615;53.602;11.418;2022-08-21T12:06:52;101087.38;;;26.75;82.75
3206;BME280;1615;53.602;11.418;2022-08-21T12:09:34;101080.88;;;26.64;82.90
3206;BME280;1615;53.602;11.418;2022-08-21T12:18:02;101079.31;;;26.74;93.27
3206;BME280;1615;53.602;11.418;2022-08-21T12:21:17;101084.19;;;26.84;88.82
3206;BME280;1615;53.602;11.418;2022-08-21T12:23:29;100940.66;;;25.91;83.17
3206;BME280;1615;53.602;11.418;2022-08-21T12:28:45;101046.19;;;26.50;86.49
3206;BME280;1615;53.602;11.418;2022-08-21T12:31:23;101073.72;;;26.77;85.59
3206;BME280;1615;53.602;11.418;2022-08-21T12:33:55;101079.78;;;26.90;89.87
3206;BME280;1615;53.602;11.418;2022-08-21T12:36:42;101078.19;;;26.85;81.05
3206;BME280;1615;53.602;11.418;2022-08-21T12:39:22;101059.22;;;26.72;77.70
3206;BME280;1615;53.602;11.418;2022-08-21T12:42:03;101069.56;;;26.57;80.31
3206;BME280;1615;53.602;11.418;2022-08-21T12:44:43;101065.47;;;26.48;88.13
3206;BME280;1615;53.602;11.418;2022-08-21T12:50:02;101067.75;;;26.21;91.22
3206;BME280;1615;53.602;11.418;2022-08-21T12:52:35;100994.72;;;25.81;91.72
3206;BME280;1615;53.602;11.418;2022-08-21T12:55:03;101061.28;;;26.21;83.91
3206;BME280;1615;53.602;11.418;2022-08-21T12:57:29;101058.13;;;26.26;80.71
3206;BME280;1615;53.602;11.418;2022-08-21T13:00:04;101063.78;;;26.33;80.96
3206;BME280;1615;53.602;11.418;2022-08-21T13:02:34;101056.56;;;26.39;81.12
3206;BME280;1615;53.602;11.418;2022-08-21T13:05:04;101053.38;;;26.40;79.81
3206;BME280;1615;53.602;11.418;2022-08-21T13:07:32;101054.59;;;26.43;81.61
3206;BME280;1615;53.602;11.418;2022-08-21T13:12:31;101043.88;;;26.62;85.04
3206;BME280;1615;53.602;11.418;2022-08-21T13:15:01;101029.44;;;26.71;83.93
3206;BME280;1615;53.602;11.418;2022-08-21T13:17:31;101048.84;;;26.90;86.92
3206;BME280;1615;53.602;11.418;2022-08-21T13:20:00;101040.84;;;26.99;81.90
3206;BME280;1615;53.602;11.418;2022-08-21T13:22:27;101034.00;;;27.03;83.29
3206;BME280;1615;53.602;11.418;2022-08-21T13:24:52;101036.00;;;27.03;88.72
3206;BME280;1615;53.602;11.418;2022-08-21T13:27:36;101031.56;;;26.91;91.23
3206;BME280;1615;53.602;11.418;2022-08-21T13:30:20;101039.56;;;26.86;87.73
3206;BME280;1615;53.602;11.418;2022-08-21T13:32:54;101035.53;;;26.83;87.61
3206;BME280;1615;53.602;11.418;2022-08-21T13:35:24;101035.91;;;26.75;90.94
3206;BME280;1615;53.602;11.418;2022-08-21T13:37:51;100991.41;;;26.23;87.40
3206;BME280;1615;53.602;11.418;2022-08-21T13:40:22;101038.94;;;26.45;89.89
3206;BME280;1615;53.602;11.418;2022-08-21T13:42:49;101039.69;;;26.39;89.33
3206;BME280;1615;53.602;11.418;2022-08-21T13:45:27;101036.09;;;26.38;93.20
3206;BME280;1615;53.602;11.418;2022-08-21T13:47:56;101038.94;;;26.42;93.35
3206;BME280;1615;53.602;11.418;2022-08-21T13:50:23;101039.78;;;26.46;96.09
3206;BME280;1615;53.602;11.418;2022-08-21T13:52:59;101030.97;;;26.51;91.02
3206;BME280;1615;53.602;11.418;2022-08-21T13:55:26;101012.75;;;26.27;90.39
3206;BME280;1615;53.602;11.418;2022-08-21T13:58:01;101021.69;;;26.50;85.96
3206;BME280;1615;53.602;11.418;2022-08-21T14:00:29;100991.50;;;26.40;79.63
3206;BME280;1615;53.602;11.418;2022-08-21T14:03:03;100965.84;;;26.49;84.67
3206;BME280;1615;53.602;11.418;2022-08-21T14:05:32;101026.31;;;26.90;85.72
3206;BME280;1615;53.602;11.418;2022-08-21T14:08:11;101017.88;;;26.90;81.75
3206;BME280;1615;53.602;11.418;2022-08-21T14:10:43;101015.88;;;26.97;83.12
3206;BME280;1615;53.602;11.418;2022-08-21T14:15:57;101020.31;;;27.02;87.41